Soda Springs, Idaho
Current Conditions -  °F | °C
As of 7:55 AM on Tuesday 21 Oct 2014 (Local Time) from KAFO Reporting Station
Broken Clouds Broken Clouds  
Wind Chill: 42°   Ceiling: 6500
Heat Index: 48°   Visibility: 10mi
Dew Point: 36°   Wind: 16mph
Humidity: 62%   Direction: 190°S
Pressure: 29.94"   Gusts: NA
Location:  42.65°N, 111.6°W
Report Text: KAFO 211355Z AUTO 19014KT 10SM SCT013 BKN065 BKN075 09/02 A2994 RMK AO2
Loading
Personal Weather Stations






























Interactive Weather Map
Tropical Storm Tracking
New forecast layout! Learn more

10-Day Weather Forecast

Advertisements
Track Severe Weather on mobile